Aviation Digital Data Service (ADDS)

Output produced by METARs form (1143 UTC 23 February 2017)
found at http://aviationweather.gov/adds/metars/
 
KART 230904Z 2309/2406 19004KT P6SM VCSH BKN035 OVC050 
     FM231500 20012G18KT P6SM VCSH OVC020 
     FM231900 23015G22KT 1 1/2SM BR VCSH OVC007 
     FM232200 26011KT 1SM BR BKN012 
     FM240000 28004KT P6SM BKN200 
     FM240300 01007KT P6SM BKN015